createdAt,value
2022-08-22T00:01:47.309Z,100.00
2022-08-22T00:02:57.070Z,100.00
2022-08-22T00:03:10.646Z,100.00
2022-08-22T00:03:12.823Z,100.00
2022-08-22T00:04:22.907Z,100.00
2022-08-22T00:06:57.418Z,100.00
2022-08-22T00:09:35.344Z,100.00
2022-08-22T00:12:06.261Z,100.00
2022-08-22T00:14:40.139Z,100.00
2022-08-22T00:17:25.106Z,100.00
2022-08-22T00:20:00.322Z,100.00
2022-08-22T00:22:45.338Z,100.00
2022-08-22T00:25:30.271Z,100.00
2022-08-22T00:27:59.265Z,100.00
2022-08-22T00:30:26.579Z,100.00
2022-08-22T00:32:54.727Z,100.00
2022-08-22T00:35:32.183Z,100.00
2022-08-22T00:38:05.991Z,100.00
2022-08-22T00:40:53.521Z,100.00
2022-08-22T00:43:38.611Z,100.00
2022-08-22T00:46:23.280Z,100.00
2022-08-22T00:49:22.072Z,100.00
2022-08-22T00:51:53.563Z,100.00
2022-08-22T00:54:19.889Z,100.00
2022-08-22T00:57:17.367Z,100.00
2022-08-22T00:59:52.900Z,100.00
2022-08-22T01:02:22.315Z,100.00
2022-08-22T01:04:49.086Z,100.00
2022-08-22T01:07:18.531Z,100.00
2022-08-22T01:09:52.365Z,100.00
2022-08-22T01:12:24.501Z,100.00
2022-08-22T01:15:05.525Z,100.00
2022-08-22T01:17:41.112Z,100.00
2022-08-22T01:20:11.127Z,100.00
2022-08-22T01:22:55.934Z,100.00
2022-08-22T01:25:25.825Z,100.00
2022-08-22T01:28:11.504Z,100.00
2022-08-22T01:30:59.781Z,100.00
2022-08-22T01:33:44.659Z,100.00
2022-08-22T01:36:29.811Z,100.00
2022-08-22T01:39:01.766Z,100.00
2022-08-22T01:41:37.508Z,100.00
2022-08-22T01:44:03.887Z,100.00
2022-08-22T01:46:48.932Z,100.00
2022-08-22T01:49:21.232Z,100.00
2022-08-22T01:52:01.970Z,100.00
2022-08-22T01:54:37.354Z,100.00
2022-08-22T01:57:07.639Z,100.00
2022-08-22T01:59:42.543Z,100.00
2022-08-22T02:02:24.273Z,100.00
2022-08-22T02:05:06.629Z,100.00
2022-08-22T02:07:52.993Z,100.00
2022-08-22T02:10:23.066Z,100.00
2022-08-22T02:12:52.266Z,100.00
2022-08-22T02:15:30.413Z,100.00
2022-08-22T02:18:14.455Z,100.00
2022-08-22T02:20:40.793Z,100.00
2022-08-22T02:23:25.906Z,100.00
2022-08-22T02:26:01.338Z,100.00
2022-08-22T02:28:27.674Z,100.00
2022-08-22T02:31:00.557Z,100.00
2022-08-22T02:33:39.259Z,100.00
2022-08-22T02:36:31.982Z,100.00
2022-08-22T02:39:01.142Z,100.00
2022-08-22T02:41:31.489Z,100.00
2022-08-22T02:44:02.284Z,100.00
2022-08-22T02:46:51.429Z,100.00
2022-08-22T02:49:35.839Z,100.00
2022-08-22T02:52:24.498Z,100.00
2022-08-22T02:54:50.810Z,100.00
2022-08-22T02:57:21.593Z,100.00
2022-08-22T03:00:30.720Z,100.00
2022-08-22T03:02:59.266Z,100.00
2022-08-22T03:05:37.536Z,100.00
2022-08-22T03:08:13.455Z,100.00
2022-08-22T03:10:41.740Z,100.00
2022-08-22T03:13:10.820Z,100.00
2022-08-22T03:15:37.176Z,100.00
2022-08-22T03:18:06.672Z,100.00
2022-08-22T03:20:35.850Z,100.00
2022-08-22T03:23:25.426Z,100.00
2022-08-22T03:25:59.627Z,100.00
2022-08-22T03:28:38.214Z,100.00
2022-08-22T03:31:22.776Z,100.00
2022-08-22T03:34:08.083Z,100.00
2022-08-22T03:36:34.825Z,100.00
2022-08-22T03:39:08.167Z,100.00
2022-08-22T03:41:54.076Z,100.00
2022-08-22T03:44:32.384Z,100.00
2022-08-22T03:47:01.805Z,100.00
2022-08-22T03:49:40.343Z,100.00
2022-08-22T03:52:06.722Z,100.00
2022-08-22T03:54:33.175Z,100.00
2022-08-22T03:57:18.092Z,100.00
2022-08-22T03:59:50.298Z,100.00
2022-08-22T04:02:43.541Z,100.00
2022-08-22T04:05:33.814Z,100.00
2022-08-22T04:08:13.188Z,100.00
2022-08-22T04:10:58.274Z,100.00
2022-08-22T04:13:49.456Z,100.00
2022-08-22T04:16:34.678Z,100.00
2022-08-22T04:19:15.950Z,100.00
2022-08-22T04:21:43.057Z,100.00
2022-08-22T04:24:24.682Z,100.00
2022-08-22T04:26:58.024Z,100.00
2022-08-22T04:29:27.375Z,100.00
2022-08-22T04:32:02.880Z,100.00
2022-08-22T04:34:35.017Z,100.00
2022-08-22T04:37:05.454Z,100.00
2022-08-22T04:39:31.803Z,100.00
2022-08-22T04:42:28.742Z,100.00
2022-08-22T04:44:56.094Z,100.00
2022-08-22T04:47:30.436Z,100.00
2022-08-22T04:50:10.025Z,100.00
2022-08-22T04:52:43.487Z,100.00
2022-08-22T04:55:32.882Z,100.00
2022-08-22T04:58:02.050Z,100.00
2022-08-22T05:00:55.174Z,100.00
2022-08-22T05:03:22.916Z,100.00
2022-08-22T05:05:50.735Z,100.00
2022-08-22T05:08:21.530Z,100.00
2022-08-22T05:10:49.902Z,100.00
2022-08-22T05:13:30.620Z,100.00
2022-08-22T05:15:58.971Z,100.00
2022-08-22T05:18:31.094Z,100.00
2022-08-22T05:21:00.980Z,100.00
2022-08-22T05:23:29.658Z,100.00
2022-08-22T05:25:59.881Z,100.00
2022-08-22T05:28:33.770Z,100.00
2022-08-22T05:31:02.652Z,100.00
2022-08-22T05:33:31.973Z,100.00
2022-08-22T05:36:03.593Z,100.00
2022-08-22T05:38:31.945Z,100.00
2022-08-22T05:41:05.693Z,100.00
2022-08-22T05:43:35.843Z,100.00
2022-08-22T05:46:06.252Z,100.00
2022-08-22T05:48:40.286Z,100.00
2022-08-22T05:51:14.723Z,100.00
2022-08-22T05:53:43.809Z,100.00
2022-08-22T05:56:35.983Z,100.00
2022-08-22T05:59:09.071Z,100.00
2022-08-22T06:01:38.530Z,100.00
2022-08-22T06:04:06.764Z,100.00
2022-08-22T06:06:42.149Z,100.00
2022-08-22T06:09:14.800Z,100.00
2022-08-22T06:11:51.683Z,100.00
2022-08-22T06:14:27.861Z,100.00
2022-08-22T06:17:18.551Z,100.00
2022-08-22T06:19:47.092Z,100.00
2022-08-22T06:22:39.812Z,100.00
2022-08-22T06:25:12.366Z,100.00
2022-08-22T06:27:39.332Z,100.00
2022-08-22T06:30:06.527Z,100.00
2022-08-22T06:32:58.826Z,100.00
2022-08-22T06:35:52.171Z,100.00
2022-08-22T06:38:20.262Z,100.00
2022-08-22T06:40:47.128Z,100.00
2022-08-22T06:43:13.723Z,100.00
2022-08-22T06:45:40.842Z,100.00
2022-08-22T06:48:07.479Z,100.00
2022-08-22T06:50:38.691Z,100.00
2022-08-22T06:53:16.732Z,100.00
2022-08-22T06:55:46.212Z,100.00
2022-08-22T06:58:17.105Z,100.00
2022-08-22T07:00:47.534Z,100.00
2022-08-22T07:03:25.464Z,100.00
2022-08-22T07:05:54.767Z,100.00
2022-08-22T07:08:22.212Z,100.00
2022-08-22T07:10:55.857Z,100.00
2022-08-22T07:13:24.508Z,100.00
2022-08-22T07:15:56.319Z,100.00
2022-08-22T07:18:25.006Z,100.00
2022-08-22T07:20:55.163Z,100.00
2022-08-22T07:23:31.650Z,100.00
2022-08-22T07:26:14.821Z,99.83
2022-08-22T07:29:01.414Z,99.63
2022-08-22T07:31:33.057Z,99.46
2022-08-22T07:34:08.271Z,98.91
2022-08-22T07:36:53.141Z,98.51
2022-08-22T07:39:30.126Z,98.42
2022-08-22T07:42:02.677Z,98.42
2022-08-22T07:44:35.272Z,98.21
2022-08-22T07:47:13.803Z,97.70
2022-08-22T07:50:02.195Z,96.30
2022-08-22T07:52:35.659Z,96.81
2022-08-22T07:55:07.919Z,96.37
2022-08-22T07:57:39.476Z,95.88
2022-08-22T08:00:11.595Z,95.76
2022-08-22T08:02:40.160Z,95.42
2022-08-22T08:05:06.754Z,96.16
2022-08-22T08:07:33.499Z,94.84
2022-08-22T08:10:12.746Z,96.02
2022-08-22T08:12:41.307Z,97.63
2022-08-22T08:15:10.370Z,96.37
2022-08-22T08:17:37.914Z,96.29
2022-08-22T08:20:07.480Z,94.37
2022-08-22T08:22:34.374Z,94.58
2022-08-22T08:25:02.509Z,91.88
2022-08-22T08:27:51.396Z,91.42
2022-08-22T08:30:23.389Z,91.96
2022-08-22T08:32:57.598Z,92.13
2022-08-22T08:36:02.335Z,91.33
2022-08-22T08:38:32.758Z,89.77
2022-08-22T08:41:02.111Z,92.53
2022-08-22T08:43:34.355Z,90.39
2022-08-22T08:46:14.745Z,88.73
2022-08-22T08:48:44.164Z,87.84
2022-08-22T08:51:13.508Z,87.81
2022-08-22T08:53:45.044Z,86.54
2022-08-22T08:56:19.490Z,86.54
2022-08-22T08:59:10.220Z,86.45
2022-08-22T09:01:42.950Z,83.48
2022-08-22T09:04:24.482Z,84.29
2022-08-22T09:06:54.565Z,83.83
2022-08-22T09:09:30.460Z,83.27
2022-08-22T09:12:36.406Z,83.43
2022-08-22T09:15:37.471Z,82.64
2022-08-22T09:18:13.366Z,81.26
2022-08-22T09:21:04.259Z,81.03
2022-08-22T09:23:30.695Z,80.43
2022-08-22T09:26:06.123Z,78.70
2022-08-22T09:28:53.385Z,74.18
2022-08-22T09:31:47.392Z,74.15
2022-08-22T09:34:23.902Z,74.37
2022-08-22T09:37:08.980Z,72.85
2022-08-22T09:39:40.594Z,74.34
2022-08-22T09:42:20.091Z,73.66
2022-08-22T09:45:05.884Z,72.44
2022-08-22T09:47:43.150Z,71.79
2022-08-22T09:50:17.074Z,71.50
2022-08-22T09:52:44.018Z,68.46
2022-08-22T09:55:27.854Z,68.98
2022-08-22T09:58:18.313Z,67.48
2022-08-22T10:00:55.285Z,67.66
2022-08-22T10:03:21.686Z,67.55
2022-08-22T10:05:56.060Z,68.04
2022-08-22T10:08:28.431Z,68.00
2022-08-22T10:11:02.525Z,68.96
2022-08-22T10:13:41.506Z,68.70
2022-08-22T10:16:20.519Z,68.50
2022-08-22T10:18:53.955Z,68.62
2022-08-22T10:21:42.915Z,69.33
2022-08-22T10:24:24.570Z,70.22
2022-08-22T10:26:58.075Z,69.64
2022-08-22T10:29:43.055Z,68.24
2022-08-22T10:32:15.840Z,67.72
2022-08-22T10:34:48.849Z,67.96
2022-08-22T10:37:23.714Z,68.48
2022-08-22T10:39:50.774Z,67.48
2022-08-22T10:42:25.599Z,64.74
2022-08-22T10:45:03.606Z,65.64
2022-08-22T10:47:37.464Z,63.62
2022-08-22T10:50:13.345Z,62.73
2022-08-22T10:52:49.430Z,63.45
2022-08-22T10:55:20.546Z,61.70
2022-08-22T10:58:00.343Z,62.49
2022-08-22T11:00:34.424Z,61.27
2022-08-22T11:03:18.656Z,61.08
2022-08-22T11:05:50.899Z,60.89
2022-08-22T11:08:36.928Z,59.77
2022-08-22T11:11:18.570Z,59.52
2022-08-22T11:13:44.953Z,61.24
2022-08-22T11:16:17.840Z,58.75
2022-08-22T11:19:15.192Z,58.81
2022-08-22T11:22:00.859Z,60.70
2022-08-22T11:27:08.451Z,61.24
2022-08-22T11:29:57.964Z,60.15
2022-08-22T11:32:24.662Z,61.10
2022-08-22T11:35:11.140Z,60.98
2022-08-22T11:37:42.464Z,59.93
2022-08-22T11:40:19.274Z,60.09
2022-08-22T11:42:51.569Z,61.00
2022-08-22T11:45:20.292Z,62.82
2022-08-22T11:47:56.344Z,62.55
2022-08-22T11:50:44.769Z,63.81
2022-08-22T11:53:26.043Z,61.83
2022-08-22T11:56:05.450Z,62.26
2022-08-22T11:58:44.482Z,62.44
2022-08-22T12:01:19.251Z,62.20
2022-08-22T12:03:58.140Z,62.96
2022-08-22T12:06:43.863Z,61.49
2022-08-22T12:09:18.538Z,62.48
2022-08-22T12:11:58.643Z,62.69
2022-08-22T12:14:40.903Z,61.82
2022-08-22T12:17:54.997Z,62.19
2022-08-22T12:20:32.948Z,62.42
2022-08-22T12:23:19.265Z,62.61
2022-08-22T12:25:49.472Z,63.11
2022-08-22T12:28:20.426Z,63.31
2022-08-22T12:30:56.140Z,63.08
2022-08-22T12:33:46.225Z,62.53
2022-08-22T12:36:37.666Z,60.26
2022-08-22T12:39:15.306Z,60.78
2022-08-22T12:41:48.866Z,61.63
2022-08-22T12:44:34.321Z,61.90
2022-08-22T12:47:04.197Z,61.31
2022-08-22T12:50:06.026Z,61.60
2022-08-22T12:52:32.427Z,61.88
2022-08-22T12:55:09.017Z,61.74
2022-08-22T12:57:50.429Z,61.42
2022-08-22T13:00:22.925Z,60.54
2022-08-22T13:02:53.219Z,60.65
2022-08-22T13:05:22.746Z,60.88
2022-08-22T13:07:55.873Z,60.76
2022-08-22T13:10:35.892Z,59.84
2022-08-22T13:13:03.959Z,60.73
2022-08-22T13:15:42.540Z,59.55
2022-08-22T13:18:29.411Z,59.00
2022-08-22T13:20:58.464Z,59.84
2022-08-22T13:23:31.774Z,59.41
2022-08-22T13:26:07.978Z,60.02
2022-08-22T13:28:43.259Z,60.05
2022-08-22T13:31:15.344Z,60.81
2022-08-22T13:33:47.796Z,61.11
2022-08-22T13:36:17.763Z,60.29
2022-08-22T13:38:46.606Z,60.43
2022-08-22T13:41:13.282Z,60.41
2022-08-22T13:43:59.836Z,61.84
2022-08-22T13:46:28.142Z,61.52
2022-08-22T13:49:00.882Z,60.24
2022-08-22T13:51:46.086Z,60.41
2022-08-22T13:54:15.823Z,59.50
2022-08-22T13:56:50.380Z,61.01
2022-08-22T13:59:47.210Z,60.87
2022-08-22T14:02:34.288Z,61.43
2022-08-22T14:05:04.301Z,61.57
2022-08-22T14:07:37.299Z,62.04
2022-08-22T14:10:14.667Z,60.27
2022-08-22T14:12:51.116Z,60.76
2022-08-22T14:15:32.183Z,60.80
2022-08-22T14:18:14.464Z,61.34
2022-08-22T14:20:41.969Z,61.83
2022-08-22T14:23:08.758Z,61.28
2022-08-22T14:25:37.554Z,60.42
2022-08-22T14:28:09.502Z,59.75
2022-08-22T14:30:39.183Z,60.71
2022-08-22T14:33:19.676Z,61.39
2022-08-22T14:35:52.959Z,62.19
2022-08-22T14:38:31.593Z,62.77
2022-08-22T14:41:10.095Z,62.94
2022-08-22T14:43:46.062Z,62.94
2022-08-22T14:46:18.161Z,63.79
2022-08-22T14:49:07.740Z,63.98
2022-08-22T14:51:38.648Z,63.68
2022-08-22T14:54:09.493Z,63.24
2022-08-22T14:56:41.345Z,62.43
2022-08-22T14:59:12.128Z,63.31
2022-08-22T15:01:56.470Z,64.71
2022-08-22T15:04:34.219Z,63.86
2022-08-22T15:07:02.337Z,63.30
2022-08-22T15:09:50.470Z,62.24
2022-08-22T15:12:26.347Z,61.33
2022-08-22T15:14:54.654Z,60.20
2022-08-22T15:17:32.894Z,60.29
2022-08-22T15:20:12.351Z,59.42
2022-08-22T15:22:45.439Z,61.16
2022-08-22T15:25:15.398Z,61.55
2022-08-22T15:27:53.975Z,62.61
2022-08-22T15:30:33.003Z,61.93
2022-08-22T15:33:08.308Z,60.83
2022-08-22T15:35:38.996Z,62.56
2022-08-22T15:38:11.320Z,63.60
2022-08-22T15:40:41.254Z,64.46
2022-08-22T15:43:12.603Z,64.28
2022-08-22T15:45:39.554Z,64.48
2022-08-22T15:48:26.963Z,65.21
2022-08-22T15:50:58.528Z,64.41
2022-08-22T15:53:30.116Z,64.75
2022-08-22T15:56:04.379Z,65.85
2022-08-22T15:58:31.587Z,64.62
2022-08-22T16:01:05.893Z,64.03
2022-08-22T16:03:54.354Z,62.49
2022-08-22T16:07:00.444Z,62.04
2022-08-22T16:09:30.032Z,63.46
2022-08-22T16:11:57.176Z,63.42
2022-08-22T16:14:43.130Z,64.60
2022-08-22T16:17:24.674Z,64.52
2022-08-22T16:20:20.097Z,65.42
2022-08-22T16:22:56.366Z,66.17
2022-08-22T16:25:41.751Z,66.36
2022-08-22T16:28:19.097Z,66.70
2022-08-22T16:30:52.348Z,67.22
2022-08-22T16:33:33.816Z,67.25
2022-08-22T16:36:15.470Z,67.62
2022-08-22T16:38:44.266Z,67.24
2022-08-22T16:41:34.567Z,67.71
2022-08-22T16:44:36.525Z,68.91
2022-08-22T16:47:08.816Z,68.97
2022-08-22T16:49:36.460Z,69.42
2022-08-22T16:52:24.063Z,69.33
2022-08-22T16:54:55.696Z,69.44
2022-08-22T16:57:27.957Z,69.63
2022-08-22T17:00:01.633Z,70.40
2022-08-22T17:02:33.171Z,69.77
2022-08-22T17:05:18.628Z,70.67
2022-08-22T17:07:54.052Z,70.75
2022-08-22T17:10:26.235Z,71.56
2022-08-22T17:12:52.638Z,71.96
2022-08-22T17:15:33.927Z,72.21
2022-08-22T17:18:11.869Z,72.14
2022-08-22T17:20:42.136Z,72.12
2022-08-22T17:23:28.306Z,72.62
2022-08-22T17:26:13.209Z,72.35
2022-08-22T17:28:52.422Z,72.96
2022-08-22T17:31:28.122Z,72.56
2022-08-22T17:33:59.961Z,71.58
2022-08-22T17:36:29.129Z,71.34
2022-08-22T17:39:03.331Z,71.83
2022-08-22T17:41:39.364Z,72.21
2022-08-22T17:44:24.598Z,72.79
2022-08-22T17:46:54.307Z,73.27
2022-08-22T17:49:48.201Z,74.19
2022-08-22T17:52:25.444Z,74.65
2022-08-22T17:54:59.059Z,74.65
2022-08-22T17:57:25.354Z,74.84
2022-08-22T18:00:07.612Z,75.14
2022-08-22T18:02:40.667Z,75.49
2022-08-22T18:05:17.329Z,75.92
2022-08-22T18:08:02.623Z,76.30
2022-08-22T18:10:31.746Z,77.23
2022-08-22T18:13:06.969Z,77.25
2022-08-22T18:15:33.771Z,77.71
2022-08-22T18:18:04.254Z,78.06
2022-08-22T18:20:34.950Z,79.04
2022-08-22T18:23:08.062Z,79.65
2022-08-22T18:25:57.144Z,80.42
2022-08-22T18:28:40.904Z,81.17
2022-08-22T18:31:27.048Z,81.43
2022-08-22T18:34:00.838Z,84.00
2022-08-22T18:36:34.415Z,84.86
2022-08-22T18:39:05.895Z,84.39
2022-08-22T18:41:52.515Z,85.05
2022-08-22T18:44:24.973Z,85.57
2022-08-22T18:46:53.140Z,85.98
2022-08-22T18:49:22.216Z,86.62
2022-08-22T18:52:07.580Z,86.95
2022-08-22T18:54:33.982Z,87.72
2022-08-22T18:57:30.488Z,87.30
2022-08-22T18:59:56.908Z,87.21
2022-08-22T19:02:32.848Z,87.84
2022-08-22T19:05:02.763Z,88.38
2022-08-22T19:07:47.996Z,88.48
2022-08-22T19:10:23.428Z,88.54
2022-08-22T19:13:13.228Z,89.34
2022-08-22T19:15:45.559Z,88.97
2022-08-22T19:18:11.899Z,89.47
2022-08-22T19:20:58.589Z,89.54
2022-08-22T19:23:33.903Z,89.82
2022-08-22T19:26:19.066Z,90.97
2022-08-22T19:28:45.718Z,91.81
2022-08-22T19:31:22.640Z,93.28
2022-08-22T19:34:08.934Z,92.99
2022-08-22T19:36:35.308Z,94.77
2022-08-22T19:39:04.344Z,95.67
2022-08-22T19:41:44.636Z,95.73
2022-08-22T19:44:10.970Z,95.41
2022-08-22T19:46:39.085Z,96.92
2022-08-22T19:49:06.645Z,96.98
2022-08-22T19:51:33.606Z,97.66
2022-08-22T19:54:03.118Z,98.16
2022-08-22T19:56:37.020Z,98.58
2022-08-22T19:59:06.469Z,98.91
2022-08-22T20:01:42.797Z,99.25
2022-08-22T20:04:20.644Z,99.69
2022-08-22T20:07:00.434Z,99.81
2022-08-22T20:09:32.769Z,100.00
2022-08-22T20:12:15.544Z,100.00
2022-08-22T20:14:44.173Z,100.00
2022-08-22T20:17:33.711Z,100.00
2022-08-22T20:20:17.590Z,100.00
2022-08-22T20:22:48.262Z,100.00
2022-08-22T20:25:42.357Z,100.00
2022-08-22T20:28:08.517Z,100.00
2022-08-22T20:30:39.656Z,100.00
2022-08-22T20:33:08.846Z,100.00
2022-08-22T20:35:39.058Z,100.00
2022-08-22T20:38:07.671Z,100.00
2022-08-22T20:40:57.346Z,100.00
2022-08-22T20:43:32.090Z,100.00
2022-08-22T20:46:16.399Z,100.00
2022-08-22T20:48:44.802Z,100.00
2022-08-22T20:51:14.225Z,100.00
2022-08-22T20:53:40.863Z,100.00
2022-08-22T20:56:08.177Z,100.00
2022-08-22T20:58:37.675Z,100.00
2022-08-22T21:01:05.963Z,100.00
2022-08-22T21:03:32.334Z,100.00
2022-08-22T21:06:09.370Z,100.00
2022-08-22T21:08:35.698Z,100.00
2022-08-22T21:11:22.299Z,100.00
2022-08-22T21:13:49.617Z,100.00
2022-08-22T21:16:21.048Z,100.00
2022-08-22T21:18:51.656Z,100.00
2022-08-22T21:21:22.749Z,100.00
2022-08-22T21:23:51.697Z,100.00
2022-08-22T21:26:21.041Z,100.00
2022-08-22T21:29:07.748Z,100.00
2022-08-22T21:31:46.272Z,100.00
2022-08-22T21:34:18.793Z,100.00
2022-08-22T21:36:45.208Z,100.00
2022-08-22T21:39:14.336Z,100.00
2022-08-22T21:41:42.785Z,100.00
2022-08-22T21:44:23.867Z,100.00
2022-08-22T21:46:50.715Z,100.00
2022-08-22T21:49:21.814Z,100.00
2022-08-22T21:51:49.844Z,100.00
2022-08-22T21:54:22.246Z,100.00
2022-08-22T21:56:50.151Z,100.00
2022-08-22T21:59:51.401Z,100.00
2022-08-22T22:02:34.253Z,100.00
2022-08-22T22:05:05.628Z,100.00
2022-08-22T22:07:35.619Z,100.00
2022-08-22T22:10:02.004Z,100.00
2022-08-22T22:12:28.357Z,100.00
2022-08-22T22:14:54.720Z,100.00
2022-08-22T22:17:21.064Z,100.00
2022-08-22T22:19:47.996Z,100.00
2022-08-22T22:22:14.344Z,100.00
2022-08-22T22:24:40.740Z,100.00
2022-08-22T22:27:07.316Z,100.00
2022-08-22T22:29:34.143Z,100.00
2022-08-22T22:32:00.572Z,100.00
2022-08-22T22:34:26.963Z,100.00
2022-08-22T22:36:54.550Z,100.00
2022-08-22T22:39:20.927Z,100.00
2022-08-22T22:41:48.855Z,100.00
2022-08-22T22:44:15.194Z,100.00
2022-08-22T22:46:42.039Z,100.00
2022-08-22T22:49:08.393Z,100.00
2022-08-22T22:51:34.780Z,100.00
2022-08-22T22:54:01.130Z,100.00
2022-08-22T22:56:28.406Z,100.00
2022-08-22T22:59:00.835Z,100.00
2022-08-22T23:01:58.660Z,100.00
2022-08-22T23:04:25.099Z,100.00
2022-08-22T23:06:51.444Z,100.00
2022-08-22T23:09:17.784Z,100.00
2022-08-22T23:11:44.469Z,100.00
2022-08-22T23:14:10.799Z,100.00
2022-08-22T23:16:39.638Z,100.00
2022-08-22T23:19:10.130Z,100.00
2022-08-22T23:21:36.513Z,100.00
2022-08-22T23:24:02.963Z,100.00
2022-08-22T23:26:29.567Z,100.00
2022-08-22T23:28:56.605Z,100.00
2022-08-22T23:31:30.807Z,100.00
2022-08-22T23:34:00.443Z,100.00
2022-08-22T23:36:26.804Z,100.00
2022-08-22T23:38:53.231Z,100.00
2022-08-22T23:41:21.438Z,100.00
2022-08-22T23:43:48.964Z,100.00
2022-08-22T23:46:16.400Z,100.00
2022-08-22T23:48:43.143Z,100.00
2022-08-22T23:51:10.316Z,100.00
2022-08-22T23:53:37.060Z,100.00
2022-08-22T23:56:19.869Z,100.00
2022-08-22T23:58:46.795Z,100.00
